sensor_id;sensor_type;location;lat;lon;timestamp;temperature;humidity
15947;DHT22;8072;52.554;7.966;2023-05-21T00:00:39;14.60;99.90
15947;DHT22;8072;52.554;7.966;2023-05-21T00:03:06;14.50;99.90
15947;DHT22;8072;52.554;7.966;2023-05-21T00:05:39;14.50;99.90
15947;DHT22;8072;52.554;7.966;2023-05-21T00:08:05;14.50;99.90
15947;DHT22;8072;52.554;7.966;2023-05-21T00:10:31;14.50;99.90
15947;DHT22;8072;52.554;7.966;2023-05-21T00:12:56;14.50;99.90
15947;DHT22;8072;52.554;7.966;2023-05-21T00:15:22;14.50;99.90
15947;DHT22;8072;52.554;7.966;2023-05-21T00:17:49;14.50;99.90
15947;DHT22;8072;52.554;7.966;2023-05-21T00:20:15;14.50;99.90
15947;DHT22;8072;52.554;7.966;2023-05-21T00:22:42;14.50;99.90
15947;DHT22;8072;52.554;7.966;2023-05-21T00:25:09;14.50;99.90
15947;DHT22;8072;52.554;7.966;2023-05-21T00:27:36;14.40;99.90
15947;DHT22;8072;52.554;7.966;2023-05-21T00:30:02;14.40;99.90
15947;DHT22;8072;52.554;7.966;2023-05-21T00:32:28;14.40;99.90
15947;DHT22;8072;52.554;7.966;2023-05-21T00:34:54;14.30;99.90
15947;DHT22;8072;52.554;7.966;2023-05-21T00:37:20;14.30;99.90
15947;DHT22;8072;52.554;7.966;2023-05-21T00:39:46;14.30;99.90
15947;DHT22;8072;52.554;7.966;2023-05-21T00:42:12;14.30;99.90
15947;DHT22;8072;52.554;7.966;2023-05-21T00:44:43;14.30;99.90
15947;DHT22;8072;52.554;7.966;2023-05-21T00:47:11;14.30;99.90
15947;DHT22;8072;52.554;7.966;2023-05-21T00:49:38;14.20;99.90
15947;DHT22;8072;52.554;7.966;2023-05-21T00:52:04;14.20;99.90
15947;DHT22;8072;52.554;7.966;2023-05-21T00:54:32;14.20;99.90
15947;DHT22;8072;52.554;7.966;2023-05-21T00:56:58;14.20;99.90
15947;DHT22;8072;52.554;7.966;2023-05-21T00:59:24;14.10;99.90
15947;DHT22;8072;52.554;7.966;2023-05-21T01:01:51;14.10;99.90
15947;DHT22;8072;52.554;7.966;2023-05-21T01:04:23;14.10;99.90
15947;DHT22;8072;52.554;7.966;2023-05-21T01:06:50;14.10;99.90
15947;DHT22;8072;52.554;7.966;2023-05-21T01:09:18;14.00;99.90
15947;DHT22;8072;52.554;7.966;2023-05-21T01:11:47;14.00;99.90
15947;DHT22;8072;52.554;7.966;2023-05-21T01:14:14;13.90;99.90
15947;DHT22;8072;52.554;7.966;2023-05-21T01:16:42;13.90;99.90
15947;DHT22;8072;52.554;7.966;2023-05-21T01:19:15;13.90;99.90
15947;DHT22;8072;52.554;7.966;2023-05-21T01:21:45;13.80;99.90
15947;DHT22;8072;52.554;7.966;2023-05-21T01:24:12;13.80;99.90
15947;DHT22;8072;52.554;7.966;2023-05-21T01:26:38;13.80;99.90
15947;DHT22;8072;52.554;7.966;2023-05-21T01:29:07;13.70;99.90
15947;DHT22;8072;52.554;7.966;2023-05-21T01:34:31;13.70;99.90
15947;DHT22;8072;52.554;7.966;2023-05-21T01:37:11;13.70;99.90
15947;DHT22;8072;52.554;7.966;2023-05-21T01:39:43;13.70;99.90
15947;DHT22;8072;52.554;7.966;2023-05-21T01:42:10;13.60;99.90
15947;DHT22;8072;52.554;7.966;2023-05-21T01:44:36;13.50;99.90
15947;DHT22;8072;52.554;7.966;2023-05-21T01:47:04;13.50;99.90
15947;DHT22;8072;52.554;7.966;2023-05-21T01:49:30;13.50;99.90
15947;DHT22;8072;52.554;7.966;2023-05-21T01:51:56;13.50;99.90
15947;DHT22;8072;52.554;7.966;2023-05-21T01:54:22;13.40;99.90
15947;DHT22;8072;52.554;7.966;2023-05-21T01:56:48;13.40;99.90
15947;DHT22;8072;52.554;7.966;2023-05-21T01:59:15;13.40;99.90
15947;DHT22;8072;52.554;7.966;2023-05-21T02:01:42;13.40;99.90
15947;DHT22;8072;52.554;7.966;2023-05-21T02:04:07;13.40;99.90
15947;DHT22;8072;52.554;7.966;2023-05-21T02:06:33;13.30;99.90
15947;DHT22;8072;52.554;7.966;2023-05-21T02:09:01;13.30;99.90
15947;DHT22;8072;52.554;7.966;2023-05-21T02:11:27;13.30;99.90
15947;DHT22;8072;52.554;7.966;2023-05-21T02:13:54;13.30;99.90
15947;DHT22;8072;52.554;7.966;2023-05-21T02:16:22;13.30;99.90
15947;DHT22;8072;52.554;7.966;2023-05-21T02:18:47;13.20;99.90
15947;DHT22;8072;52.554;7.966;2023-05-21T02:21:17;13.20;99.90
15947;DHT22;8072;52.554;7.966;2023-05-21T02:23:45;13.20;99.90
15947;DHT22;8072;52.554;7.966;2023-05-21T02:26:10;13.20;99.90
15947;DHT22;8072;52.554;7.966;2023-05-21T02:28:37;13.10;99.90
15947;DHT22;8072;52.554;7.966;2023-05-21T02:31:03;13.10;99.90
15947;DHT22;8072;52.554;7.966;2023-05-21T02:33:28;13.10;99.90
15947;DHT22;8072;52.554;7.966;2023-05-21T02:35:54;13.10;99.90
15947;DHT22;8072;52.554;7.966;2023-05-21T02:38:20;13.10;99.90
15947;DHT22;8072;52.554;7.966;2023-05-21T02:40:48;13.00;99.90
15947;DHT22;8072;52.554;7.966;2023-05-21T02:43:15;13.00;99.90
15947;DHT22;8072;52.554;7.966;2023-05-21T02:45:44;13.00;99.90
15947;DHT22;8072;52.554;7.966;2023-05-21T02:48:10;12.90;99.90
15947;DHT22;8072;52.554;7.966;2023-05-21T02:50:36;12.90;99.90
15947;DHT22;8072;52.554;7.966;2023-05-21T02:53:02;12.90;99.90
15947;DHT22;8072;52.554;7.966;2023-05-21T02:55:28;12.90;99.90
15947;DHT22;8072;52.554;7.966;2023-05-21T02:57:54;12.90;99.90
15947;DHT22;8072;52.554;7.966;2023-05-21T03:00:20;12.90;99.90
15947;DHT22;8072;52.554;7.966;2023-05-21T03:02:46;12.80;99.90
15947;DHT22;8072;52.554;7.966;2023-05-21T03:05:11;12.80;99.90
15947;DHT22;8072;52.554;7.966;2023-05-21T03:07:37;12.80;99.90
15947;DHT22;8072;52.554;7.966;2023-05-21T03:10:03;12.80;99.90
15947;DHT22;8072;52.554;7.966;2023-05-21T03:12:29;12.80;99.90
15947;DHT22;8072;52.554;7.966;2023-05-21T03:14:55;12.80;99.90
15947;DHT22;8072;52.554;7.966;2023-05-21T03:17:21;12.80;99.90
15947;DHT22;8072;52.554;7.966;2023-05-21T03:19:47;12.80;99.90
15947;DHT22;8072;52.554;7.966;2023-05-21T03:22:13;12.70;99.90
15947;DHT22;8072;52.554;7.966;2023-05-21T03:24:39;12.70;99.90
15947;DHT22;8072;52.554;7.966;2023-05-21T03:27:06;12.70;99.90
15947;DHT22;8072;52.554;7.966;2023-05-21T03:29:33;12.70;99.90
15947;DHT22;8072;52.554;7.966;2023-05-21T03:31:59;12.60;99.90
15947;DHT22;8072;52.554;7.966;2023-05-21T03:34:26;12.60;99.90
15947;DHT22;8072;52.554;7.966;2023-05-21T03:36:51;12.60;99.90
15947;DHT22;8072;52.554;7.966;2023-05-21T03:39:17;12.60;99.90
15947;DHT22;8072;52.554;7.966;2023-05-21T03:41:43;12.60;99.90
15947;DHT22;8072;52.554;7.966;2023-05-21T03:44:09;12.50;99.90
15947;DHT22;8072;52.554;7.966;2023-05-21T03:46:35;12.50;99.90
15947;DHT22;8072;52.554;7.966;2023-05-21T03:49:01;12.50;99.90
15947;DHT22;8072;52.554;7.966;2023-05-21T03:51:30;12.50;99.90
15947;DHT22;8072;52.554;7.966;2023-05-21T03:53:57;12.50;99.90
15947;DHT22;8072;52.554;7.966;2023-05-21T03:56:24;12.50;99.90
15947;DHT22;8072;52.554;7.966;2023-05-21T03:58:50;12.40;99.90
15947;DHT22;8072;52.554;7.966;2023-05-21T04:01:17;12.40;99.90
15947;DHT22;8072;52.554;7.966;2023-05-21T04:03:44;12.40;99.90
15947;DHT22;8072;52.554;7.966;2023-05-21T04:06:09;12.40;99.90
15947;DHT22;8072;52.554;7.966;2023-05-21T04:08:35;12.40;99.90
15947;DHT22;8072;52.554;7.966;2023-05-21T04:11:02;12.40;99.90
15947;DHT22;8072;52.554;7.966;2023-05-21T04:13:28;12.40;99.90
15947;DHT22;8072;52.554;7.966;2023-05-21T04:15:54;12.40;99.90
15947;DHT22;8072;52.554;7.966;2023-05-21T04:18:20;12.40;99.90
15947;DHT22;8072;52.554;7.966;2023-05-21T04:20:50;12.40;99.90
15947;DHT22;8072;52.554;7.966;2023-05-21T04:23:16;12.40;99.90
15947;DHT22;8072;52.554;7.966;2023-05-21T04:25:42;12.40;99.90
15947;DHT22;8072;52.554;7.966;2023-05-21T04:28:07;12.40;99.90
15947;DHT22;8072;52.554;7.966;2023-05-21T04:30:34;12.40;99.90
15947;DHT22;8072;52.554;7.966;2023-05-21T04:33:01;12.40;99.90
15947;DHT22;8072;52.554;7.966;2023-05-21T04:35:28;12.40;99.90
15947;DHT22;8072;52.554;7.966;2023-05-21T04:37:55;12.40;99.90
15947;DHT22;8072;52.554;7.966;2023-05-21T04:40:21;12.40;99.90
15947;DHT22;8072;52.554;7.966;2023-05-21T04:42:52;12.40;99.90
15947;DHT22;8072;52.554;7.966;2023-05-21T04:45:17;12.40;99.90
15947;DHT22;8072;52.554;7.966;2023-05-21T04:47:43;12.50;99.90
15947;DHT22;8072;52.554;7.966;2023-05-21T04:50:10;12.50;99.90
15947;DHT22;8072;52.554;7.966;2023-05-21T04:52:39;12.50;99.90
15947;DHT22;8072;52.554;7.966;2023-05-21T04:55:06;12.50;99.90
15947;DHT22;8072;52.554;7.966;2023-05-21T04:57:32;12.50;99.90
15947;DHT22;8072;52.554;7.966;2023-05-21T04:59:57;12.60;99.90
15947;DHT22;8072;52.554;7.966;2023-05-21T05:02:23;12.60;99.90
15947;DHT22;8072;52.554;7.966;2023-05-21T05:04:49;12.60;99.90
15947;DHT22;8072;52.554;7.966;2023-05-21T05:07:15;12.60;99.90
15947;DHT22;8072;52.554;7.966;2023-05-21T05:09:42;12.70;99.90
15947;DHT22;8072;52.554;7.966;2023-05-21T05:12:08;12.70;99.90
15947;DHT22;8072;52.554;7.966;2023-05-21T05:14:34;12.70;99.90
15947;DHT22;8072;52.554;7.966;2023-05-21T05:17:01;12.70;99.90
15947;DHT22;8072;52.554;7.966;2023-05-21T05:19:26;12.70;99.90
15947;DHT22;8072;52.554;7.966;2023-05-21T05:21:53;12.70;99.90
15947;DHT22;8072;52.554;7.966;2023-05-21T05:24:20;12.80;99.90
15947;DHT22;8072;52.554;7.966;2023-05-21T05:26:45;12.80;99.90
15947;DHT22;8072;52.554;7.966;2023-05-21T05:29:11;12.90;99.90
15947;DHT22;8072;52.554;7.966;2023-05-21T05:31:38;12.90;99.90
15947;DHT22;8072;52.554;7.966;2023-05-21T05:34:04;12.90;99.90
15947;DHT22;8072;52.554;7.966;2023-05-21T05:36:29;13.00;99.90
15947;DHT22;8072;52.554;7.966;2023-05-21T05:38:56;13.00;99.90
15947;DHT22;8072;52.554;7.966;2023-05-21T05:41:21;13.10;99.90
15947;DHT22;8072;52.554;7.966;2023-05-21T05:43:47;13.10;99.90
15947;DHT22;8072;52.554;7.966;2023-05-21T05:46:13;13.20;99.90
15947;DHT22;8072;52.554;7.966;2023-05-21T05:48:39;13.20;99.90
15947;DHT22;8072;52.554;7.966;2023-05-21T05:51:05;13.30;99.90
15947;DHT22;8072;52.554;7.966;2023-05-21T05:53:31;13.30;99.90
15947;DHT22;8072;52.554;7.966;2023-05-21T05:55:58;13.40;99.90
15947;DHT22;8072;52.554;7.966;2023-05-21T05:58:24;13.40;99.90
15947;DHT22;8072;52.554;7.966;2023-05-21T06:00:50;13.40;99.90
15947;DHT22;8072;52.554;7.966;2023-05-21T06:03:18;13.50;99.90
15947;DHT22;8072;52.554;7.966;2023-05-21T06:05:44;13.50;99.90
15947;DHT22;8072;52.554;7.966;2023-05-21T06:08:10;13.60;99.90
15947;DHT22;8072;52.554;7.966;2023-05-21T06:10:36;13.60;99.90
15947;DHT22;8072;52.554;7.966;2023-05-21T06:13:02;13.60;99.90
15947;DHT22;8072;52.554;7.966;2023-05-21T06:15:27;13.70;99.90
15947;DHT22;8072;52.554;7.966;2023-05-21T06:17:53;13.70;99.90
15947;DHT22;8072;52.554;7.966;2023-05-21T06:20:19;13.70;99.90
15947;DHT22;8072;52.554;7.966;2023-05-21T06:22:46;13.80;99.90
15947;DHT22;8072;52.554;7.966;2023-05-21T06:25:13;13.80;99.90
15947;DHT22;8072;52.554;7.966;2023-05-21T06:27:40;13.90;99.90
15947;DHT22;8072;52.554;7.966;2023-05-21T06:30:06;13.90;99.90
15947;DHT22;8072;52.554;7.966;2023-05-21T06:32:33;13.90;99.90
15947;DHT22;8072;52.554;7.966;2023-05-21T06:34:58;13.90;99.90
15947;DHT22;8072;52.554;7.966;2023-05-21T06:37:27;14.00;99.90
15947;DHT22;8072;52.554;7.966;2023-05-21T06:39:54;14.00;99.90
15947;DHT22;8072;52.554;7.966;2023-05-21T06:42:19;14.00;99.90
15947;DHT22;8072;52.554;7.966;2023-05-21T06:44:46;14.10;99.90
15947;DHT22;8072;52.554;7.966;2023-05-21T06:47:12;14.10;99.90
15947;DHT22;8072;52.554;7.966;2023-05-21T06:49:38;14.10;99.90
15947;DHT22;8072;52.554;7.966;2023-05-21T06:52:06;14.20;99.90
15947;DHT22;8072;52.554;7.966;2023-05-21T06:54:31;14.20;99.90
15947;DHT22;8072;52.554;7.966;2023-05-21T06:56:58;14.20;99.90
15947;DHT22;8072;52.554;7.966;2023-05-21T06:59:24;14.20;99.90
15947;DHT22;8072;52.554;7.966;2023-05-21T07:01:51;14.30;99.90
15947;DHT22;8072;52.554;7.966;2023-05-21T07:04:20;14.30;99.90
15947;DHT22;8072;52.554;7.966;2023-05-21T07:06:45;14.40;99.90
15947;DHT22;8072;52.554;7.966;2023-05-21T07:09:13;14.40;99.90
15947;DHT22;8072;52.554;7.966;2023-05-21T07:11:38;14.40;99.90
15947;DHT22;8072;52.554;7.966;2023-05-21T07:14:07;14.50;99.90
15947;DHT22;8072;52.554;7.966;2023-05-21T07:16:33;14.50;99.90
15947;DHT22;8072;52.554;7.966;2023-05-21T07:18:59;14.50;99.90
15947;DHT22;8072;52.554;7.966;2023-05-21T07:21:26;14.60;99.90
15947;DHT22;8072;52.554;7.966;2023-05-21T07:23:51;14.60;99.90
15947;DHT22;8072;52.554;7.966;2023-05-21T07:26:17;14.60;99.90
15947;DHT22;8072;52.554;7.966;2023-05-21T07:28:43;14.70;99.90
15947;DHT22;8072;52.554;7.966;2023-05-21T07:31:09;14.80;99.90
15947;DHT22;8072;52.554;7.966;2023-05-21T07:33:37;14.80;99.90
15947;DHT22;8072;52.554;7.966;2023-05-21T07:36:03;14.80;99.90
15947;DHT22;8072;52.554;7.966;2023-05-21T07:38:29;14.90;99.90
15947;DHT22;8072;52.554;7.966;2023-05-21T07:40:55;14.90;99.90
15947;DHT22;8072;52.554;7.966;2023-05-21T07:43:21;14.90;99.90
15947;DHT22;8072;52.554;7.966;2023-05-21T07:45:47;14.90;99.90
15947;DHT22;8072;52.554;7.966;2023-05-21T07:48:13;15.00;99.90
15947;DHT22;8072;52.554;7.966;2023-05-21T07:50:39;15.00;99.90
15947;DHT22;8072;52.554;7.966;2023-05-21T07:53:05;15.10;99.90
15947;DHT22;8072;52.554;7.966;2023-05-21T07:55:31;15.10;99.90
15947;DHT22;8072;52.554;7.966;2023-05-21T07:57:56;15.20;99.90
15947;DHT22;8072;52.554;7.966;2023-05-21T08:00:23;15.20;99.90
15947;DHT22;8072;52.554;7.966;2023-05-21T08:02:49;15.20;99.90
15947;DHT22;8072;52.554;7.966;2023-05-21T08:05:16;15.30;99.90
15947;DHT22;8072;52.554;7.966;2023-05-21T08:07:42;15.30;99.90
15947;DHT22;8072;52.554;7.966;2023-05-21T08:10:08;15.40;99.90
15947;DHT22;8072;52.554;7.966;2023-05-21T08:12:33;15.40;99.90
15947;DHT22;8072;52.554;7.966;2023-05-21T08:14:59;15.40;99.90
15947;DHT22;8072;52.554;7.966;2023-05-21T08:17:25;15.40;99.90
15947;DHT22;8072;52.554;7.966;2023-05-21T08:19:53;15.50;99.90
15947;DHT22;8072;52.554;7.966;2023-05-21T08:22:18;15.50;99.90
15947;DHT22;8072;52.554;7.966;2023-05-21T08:24:44;15.50;99.90
15947;DHT22;8072;52.554;7.966;2023-05-21T08:27:10;15.50;99.90
15947;DHT22;8072;52.554;7.966;2023-05-21T08:29:37;15.50;99.90
15947;DHT22;8072;52.554;7.966;2023-05-21T08:32:03;15.60;99.90
15947;DHT22;8072;52.554;7.966;2023-05-21T08:34:29;15.60;99.90
15947;DHT22;8072;52.554;7.966;2023-05-21T08:36:56;15.60;99.90
15947;DHT22;8072;52.554;7.966;2023-05-21T08:39:21;15.60;99.90
15947;DHT22;8072;52.554;7.966;2023-05-21T08:41:50;15.70;99.90
15947;DHT22;8072;52.554;7.966;2023-05-21T08:44:20;15.70;99.90
15947;DHT22;8072;52.554;7.966;2023-05-21T08:46:49;15.70;99.90
15947;DHT22;8072;52.554;7.966;2023-05-21T08:49:21;15.80;99.90
15947;DHT22;8072;52.554;7.966;2023-05-21T08:51:48;15.90;99.90
15947;DHT22;8072;52.554;7.966;2023-05-21T08:54:14;15.90;99.90
15947;DHT22;8072;52.554;7.966;2023-05-21T08:56:41;15.90;99.90
15947;DHT22;8072;52.554;7.966;2023-05-21T08:59:11;16.00;99.90
15947;DHT22;8072;52.554;7.966;2023-05-21T09:01:38;16.10;99.90
15947;DHT22;8072;52.554;7.966;2023-05-21T09:04:07;16.20;99.90
15947;DHT22;8072;52.554;7.966;2023-05-21T09:06:33;16.20;99.90
15947;DHT22;8072;52.554;7.966;2023-05-21T09:09:05;16.20;99.90
15947;DHT22;8072;52.554;7.966;2023-05-21T09:11:34;16.30;99.90
15947;DHT22;8072;52.554;7.966;2023-05-21T09:14:00;16.40;99.90
15947;DHT22;8072;52.554;7.966;2023-05-21T09:16:26;16.40;99.90
15947;DHT22;8072;52.554;7.966;2023-05-21T09:18:52;16.50;99.90
15947;DHT22;8072;52.554;7.966;2023-05-21T09:21:27;16.60;99.90
15947;DHT22;8072;52.554;7.966;2023-05-21T09:23:55;16.70;99.90
15947;DHT22;8072;52.554;7.966;2023-05-21T09:26:23;16.70;99.90
15947;DHT22;8072;52.554;7.966;2023-05-21T09:28:57;16.80;99.90
15947;DHT22;8072;52.554;7.966;2023-05-21T09:31:24;16.80;99.90
15947;DHT22;8072;52.554;7.966;2023-05-21T09:33:50;16.90;99.90
15947;DHT22;8072;52.554;7.966;2023-05-21T09:36:19;16.90;99.90
15947;DHT22;8072;52.554;7.966;2023-05-21T09:38:47;17.00;99.90
15947;DHT22;8072;52.554;7.966;2023-05-21T09:41:13;17.10;99.90
15947;DHT22;8072;52.554;7.966;2023-05-21T09:43:41;17.10;99.90
15947;DHT22;8072;52.554;7.966;2023-05-21T09:46:08;17.20;99.90
15947;DHT22;8072;52.554;7.966;2023-05-21T09:48:38;17.30;99.90
15947;DHT22;8072;52.554;7.966;2023-05-21T09:51:15;17.40;99.90
15947;DHT22;8072;52.554;7.966;2023-05-21T09:53:57;17.40;99.90
15947;DHT22;8072;52.554;7.966;2023-05-21T09:56:25;17.50;99.90
15947;DHT22;8072;52.554;7.966;2023-05-21T09:58:55;17.50;99.90
15947;DHT22;8072;52.554;7.966;2023-05-21T10:01:22;17.60;99.90
15947;DHT22;8072;52.554;7.966;2023-05-21T10:03:52;17.70;99.90
15947;DHT22;8072;52.554;7.966;2023-05-21T10:06:19;17.70;99.90
15947;DHT22;8072;52.554;7.966;2023-05-21T10:08:47;17.70;99.90
15947;DHT22;8072;52.554;7.966;2023-05-21T10:11:17;17.80;99.90
15947;DHT22;8072;52.554;7.966;2023-05-21T10:13:45;17.90;99.90
15947;DHT22;8072;52.554;7.966;2023-05-21T10:16:12;17.90;99.90
15947;DHT22;8072;52.554;7.966;2023-05-21T10:18:39;18.00;99.90
15947;DHT22;8072;52.554;7.966;2023-05-21T10:21:07;18.10;99.90
15947;DHT22;8072;52.554;7.966;2023-05-21T10:23:35;18.20;99.90
15947;DHT22;8072;52.554;7.966;2023-05-21T10:26:03;18.30;99.90
15947;DHT22;8072;52.554;7.966;2023-05-21T10:28:30;18.30;99.90
15947;DHT22;8072;52.554;7.966;2023-05-21T10:30:57;18.40;99.90
15947;DHT22;8072;52.554;7.966;2023-05-21T10:33:24;18.50;99.90
15947;DHT22;8072;52.554;7.966;2023-05-21T10:35:52;18.50;99.90
15947;DHT22;8072;52.554;7.966;2023-05-21T10:38:19;18.60;99.90
15947;DHT22;8072;52.554;7.966;2023-05-21T10:40:47;18.70;99.90
15947;DHT22;8072;52.554;7.966;2023-05-21T10:43:40;18.80;99.90
15947;DHT22;8072;52.554;7.966;2023-05-21T10:46:23;18.90;99.90
15947;DHT22;8072;52.554;7.966;2023-05-21T11:00:05;19.10;99.90
15947;DHT22;8072;52.554;7.966;2023-05-21T11:02:32;19.20;99.90
15947;DHT22;8072;52.554;7.966;2023-05-21T11:05:00;19.30;99.90
15947;DHT22;8072;52.554;7.966;2023-05-21T11:07:49;19.40;99.90
15947;DHT22;8072;52.554;7.966;2023-05-21T11:10:39;19.40;99.90
15947;DHT22;8072;52.554;7.966;2023-05-21T11:13:12;19.40;99.90
15947;DHT22;8072;52.554;7.966;2023-05-21T11:21:05;19.50;99.90
15947;DHT22;8072;52.554;7.966;2023-05-21T11:26:21;19.60;99.90
15947;DHT22;8072;52.554;7.966;2023-05-21T11:31:34;19.60;99.90
15947;DHT22;8072;52.554;7.966;2023-05-21T11:34:23;19.70;99.90
15947;DHT22;8072;52.554;7.966;2023-05-21T11:39:50;19.90;99.90
15947;DHT22;8072;52.554;7.966;2023-05-21T11:42:38;19.90;99.90
15947;DHT22;8072;52.554;7.966;2023-05-21T11:45:07;20.00;99.90
15947;DHT22;8072;52.554;7.966;2023-05-21T11:47:33;20.00;99.90
15947;DHT22;8072;52.554;7.966;2023-05-21T11:50:00;20.00;99.90
15947;DHT22;8072;52.554;7.966;2023-05-21T11:52:31;20.00;99.90
15947;DHT22;8072;52.554;7.966;2023-05-21T11:54:59;20.10;99.90
15947;DHT22;8072;52.554;7.966;2023-05-21T11:57:27;20.00;99.90
15947;DHT22;8072;52.554;7.966;2023-05-21T11:59:57;20.00;99.90
15947;DHT22;8072;52.554;7.966;2023-05-21T12:02:24;20.10;99.90
15947;DHT22;8072;52.554;7.966;2023-05-21T12:04:51;20.10;99.90
15947;DHT22;8072;52.554;7.966;2023-05-21T12:07:18;20.20;99.90
15947;DHT22;8072;52.554;7.966;2023-05-21T12:09:49;20.20;99.90
15947;DHT22;8072;52.554;7.966;2023-05-21T12:12:17;20.30;99.90
15947;DHT22;8072;52.554;7.966;2023-05-21T12:14:47;20.40;99.90
15947;DHT22;8072;52.554;7.966;2023-05-21T12:17:21;20.40;99.90
15947;DHT22;8072;52.554;7.966;2023-05-21T12:19:50;20.50;99.90
15947;DHT22;8072;52.554;7.966;2023-05-21T12:22:16;20.60;99.90
15947;DHT22;8072;52.554;7.966;2023-05-21T12:24:42;20.70;99.90
15947;DHT22;8072;52.554;7.966;2023-05-21T12:27:09;20.80;99.90
15947;DHT22;8072;52.554;7.966;2023-05-21T12:29:42;20.90;99.90
15947;DHT22;8072;52.554;7.966;2023-05-21T12:32:12;21.00;99.90
15947;DHT22;8072;52.554;7.966;2023-05-21T12:34:46;21.10;99.90
15947;DHT22;8072;52.554;7.966;2023-05-21T12:37:24;21.20;99.90
15947;DHT22;8072;52.554;7.966;2023-05-21T12:39:56;21.40;99.90
15947;DHT22;8072;52.554;7.966;2023-05-21T12:42:24;21.50;99.90
15947;DHT22;8072;52.554;7.966;2023-05-21T12:44:52;21.60;99.90
15947;DHT22;8072;52.554;7.966;2023-05-21T12:47:25;21.70;99.90
15947;DHT22;8072;52.554;7.966;2023-05-21T12:49:58;21.80;99.90
15947;DHT22;8072;52.554;7.966;2023-05-21T12:52:24;21.70;99.90
15947;DHT22;8072;52.554;7.966;2023-05-21T12:54:53;21.70;99.90
15947;DHT22;8072;52.554;7.966;2023-05-21T12:57:21;21.90;99.90
15947;DHT22;8072;52.554;7.966;2023-05-21T12:59:51;21.90;99.90
15947;DHT22;8072;52.554;7.966;2023-05-21T13:02:20;22.00;99.90
15947;DHT22;8072;52.554;7.966;2023-05-21T13:04:47;22.10;99.90
15947;DHT22;8072;52.554;7.966;2023-05-21T13:07:14;22.20;99.90
15947;DHT22;8072;52.554;7.966;2023-05-21T13:09:41;22.20;99.90
15947;DHT22;8072;52.554;7.966;2023-05-21T13:12:07;22.30;99.90
15947;DHT22;8072;52.554;7.966;2023-05-21T13:14:32;22.30;99.90
15947;DHT22;8072;52.554;7.966;2023-05-21T13:16:58;22.20;99.90
15947;DHT22;8072;52.554;7.966;2023-05-21T13:19:24;22.30;99.90
15947;DHT22;8072;52.554;7.966;2023-05-21T13:21:50;22.40;99.90
15947;DHT22;8072;52.554;7.966;2023-05-21T13:24:16;22.40;99.90
15947;DHT22;8072;52.554;7.966;2023-05-21T13:26:41;22.50;99.90
15947;DHT22;8072;52.554;7.966;2023-05-21T13:29:07;22.60;99.90
15947;DHT22;8072;52.554;7.966;2023-05-21T13:31:34;22.70;99.90
15947;DHT22;8072;52.554;7.966;2023-05-21T13:34:00;22.80;99.90
15947;DHT22;8072;52.554;7.966;2023-05-21T13:36:26;23.00;99.90
15947;DHT22;8072;52.554;7.966;2023-05-21T13:38:51;23.20;99.90
15947;DHT22;8072;52.554;7.966;2023-05-21T13:41:17;23.20;99.90
15947;DHT22;8072;52.554;7.966;2023-05-21T13:43:43;23.30;99.90
15947;DHT22;8072;52.554;7.966;2023-05-21T13:46:08;23.20;99.90
15947;DHT22;8072;52.554;7.966;2023-05-21T13:48:34;23.20;99.90
15947;DHT22;8072;52.554;7.966;2023-05-21T13:51:00;23.30;99.90
15947;DHT22;8072;52.554;7.966;2023-05-21T13:53:26;23.40;99.90
15947;DHT22;8072;52.554;7.966;2023-05-21T13:55:51;23.40;99.90
15947;DHT22;8072;52.554;7.966;2023-05-21T13:58:17;23.40;99.90
15947;DHT22;8072;52.554;7.966;2023-05-21T14:00:43;23.50;99.90
15947;DHT22;8072;52.554;7.966;2023-05-21T14:03:09;23.50;99.90
15947;DHT22;8072;52.554;7.966;2023-05-21T14:05:35;23.60;99.90
15947;DHT22;8072;52.554;7.966;2023-05-21T14:08:02;23.60;99.90
15947;DHT22;8072;52.554;7.966;2023-05-21T14:10:28;23.60;99.90
15947;DHT22;8072;52.554;7.966;2023-05-21T14:12:53;23.70;99.90
15947;DHT22;8072;52.554;7.966;2023-05-21T14:15:19;23.70;99.90
15947;DHT22;8072;52.554;7.966;2023-05-21T14:17:45;23.70;99.90
15947;DHT22;8072;52.554;7.966;2023-05-21T14:20:11;23.80;99.90
15947;DHT22;8072;52.554;7.966;2023-05-21T14:22:37;23.80;99.90
15947;DHT22;8072;52.554;7.966;2023-05-21T14:25:03;23.80;99.90
15947;DHT22;8072;52.554;7.966;2023-05-21T14:27:29;23.90;99.90
15947;DHT22;8072;52.554;7.966;2023-05-21T14:29:55;23.90;99.90
15947;DHT22;8072;52.554;7.966;2023-05-21T14:32:20;23.90;99.90
15947;DHT22;8072;52.554;7.966;2023-05-21T14:34:46;23.90;99.90
15947;DHT22;8072;52.554;7.966;2023-05-21T14:37:12;24.00;99.90
15947;DHT22;8072;52.554;7.966;2023-05-21T14:39:37;24.00;99.90
15947;DHT22;8072;52.554;7.966;2023-05-21T14:42:04;24.00;99.90
15947;DHT22;8072;52.554;7.966;2023-05-21T14:44:30;24.10;99.90
15947;DHT22;8072;52.554;7.966;2023-05-21T14:46:56;24.10;99.90
15947;DHT22;8072;52.554;7.966;2023-05-21T14:49:21;24.10;99.90
15947;DHT22;8072;52.554;7.966;2023-05-21T14:51:47;24.20;99.90
15947;DHT22;8072;52.554;7.966;2023-05-21T14:54:13;24.20;99.90
15947;DHT22;8072;52.554;7.966;2023-05-21T14:56:39;24.30;99.90
15947;DHT22;8072;52.554;7.966;2023-05-21T14:59:05;24.40;99.90
15947;DHT22;8072;52.554;7.966;2023-05-21T15:01:31;24.50;99.90
15947;DHT22;8072;52.554;7.966;2023-05-21T15:03:56;24.60;99.90
15947;DHT22;8072;52.554;7.966;2023-05-21T15:06:23;24.70;99.90
15947;DHT22;8072;52.554;7.966;2023-05-21T15:08:48;24.80;99.90
15947;DHT22;8072;52.554;7.966;2023-05-21T15:11:14;24.80;99.90
15947;DHT22;8072;52.554;7.966;2023-05-21T15:13:40;24.80;99.90
15947;DHT22;8072;52.554;7.966;2023-05-21T15:16:06;24.90;99.90
15947;DHT22;8072;52.554;7.966;2023-05-21T15:18:32;25.00;99.90
15947;DHT22;8072;52.554;7.966;2023-05-21T15:20:57;25.00;99.90
15947;DHT22;8072;52.554;7.966;2023-05-21T15:23:23;25.00;99.90
15947;DHT22;8072;52.554;7.966;2023-05-21T15:25:49;25.00;99.90
15947;DHT22;8072;52.554;7.966;2023-05-21T15:28:15;24.90;99.90
15947;DHT22;8072;52.554;7.966;2023-05-21T15:30:41;24.80;99.90
15947;DHT22;8072;52.554;7.966;2023-05-21T15:33:07;24.80;99.90
15947;DHT22;8072;52.554;7.966;2023-05-21T15:35:36;24.70;99.90
15947;DHT22;8072;52.554;7.966;2023-05-21T15:38:02;24.70;99.90
15947;DHT22;8072;52.554;7.966;2023-05-21T15:40:27;24.60;99.90
15947;DHT22;8072;52.554;7.966;2023-05-21T15:42:53;24.60;99.90
15947;DHT22;8072;52.554;7.966;2023-05-21T15:45:19;24.60;99.90
15947;DHT22;8072;52.554;7.966;2023-05-21T15:47:45;24.50;99.90
15947;DHT22;8072;52.554;7.966;2023-05-21T15:50:10;24.50;99.90
15947;DHT22;8072;52.554;7.966;2023-05-21T15:52:36;24.50;99.90
15947;DHT22;8072;52.554;7.966;2023-05-21T15:55:03;24.50;99.90
15947;DHT22;8072;52.554;7.966;2023-05-21T15:57:29;24.40;99.90
15947;DHT22;8072;52.554;7.966;2023-05-21T15:59:54;24.40;99.90
15947;DHT22;8072;52.554;7.966;2023-05-21T16:02:20;24.40;99.90
15947;DHT22;8072;52.554;7.966;2023-05-21T16:04:46;24.40;99.90
15947;DHT22;8072;52.554;7.966;2023-05-21T16:07:16;24.40;99.90
15947;DHT22;8072;52.554;7.966;2023-05-21T16:09:41;24.30;99.90
15947;DHT22;8072;52.554;7.966;2023-05-21T16:12:08;24.20;99.90